sensor_id;sensor_type;location;lat;lon;timestamp;temperature;humidity
10121;DHT22;5100;45.176;5.714;2023-04-24T00:00:57;16.90;73.10
10121;DHT22;5100;45.176;5.714;2023-04-24T00:03:24;16.90;73.00
10121;DHT22;5100;45.176;5.714;2023-04-24T00:05:50;16.90;72.90
10121;DHT22;5100;45.176;5.714;2023-04-24T00:08:17;16.90;72.70
10121;DHT22;5100;45.176;5.714;2023-04-24T00:10:44;16.90;72.60
10121;DHT22;5100;45.176;5.714;2023-04-24T00:13:10;16.90;72.40
10121;DHT22;5100;45.176;5.714;2023-04-24T00:15:36;16.90;72.50
10121;DHT22;5100;45.176;5.714;2023-04-24T00:18:02;16.90;72.70
10121;DHT22;5100;45.176;5.714;2023-04-24T00:20:28;16.90;72.80
10121;DHT22;5100;45.176;5.714;2023-04-24T00:23:01;16.80;72.80
10121;DHT22;5100;45.176;5.714;2023-04-24T00:25:27;16.80;72.90
10121;DHT22;5100;45.176;5.714;2023-04-24T00:27:53;16.90;72.90
10121;DHT22;5100;45.176;5.714;2023-04-24T00:30:20;16.80;73.10
10121;DHT22;5100;45.176;5.714;2023-04-24T00:32:46;16.90;73.20
10121;DHT22;5100;45.176;5.714;2023-04-24T00:35:12;16.80;73.20
10121;DHT22;5100;45.176;5.714;2023-04-24T00:37:38;16.80;73.20
10121;DHT22;5100;45.176;5.714;2023-04-24T00:40:05;16.80;73.10
10121;DHT22;5100;45.176;5.714;2023-04-24T00:42:32;16.80;72.90
10121;DHT22;5100;45.176;5.714;2023-04-24T00:44:58;16.80;72.80
10121;DHT22;5100;45.176;5.714;2023-04-24T00:47:25;16.80;72.90
10121;DHT22;5100;45.176;5.714;2023-04-24T00:49:52;16.80;72.80
10121;DHT22;5100;45.176;5.714;2023-04-24T00:52:18;16.80;72.80
10121;DHT22;5100;45.176;5.714;2023-04-24T00:54:45;16.80;72.80
10121;DHT22;5100;45.176;5.714;2023-04-24T00:57:13;16.80;72.80
10121;DHT22;5100;45.176;5.714;2023-04-24T00:59:41;16.80;72.90
10121;DHT22;5100;45.176;5.714;2023-04-24T01:02:09;16.80;73.10
10121;DHT22;5100;45.176;5.714;2023-04-24T01:04:37;16.80;73.20
10121;DHT22;5100;45.176;5.714;2023-04-24T01:07:04;16.80;73.10
10121;DHT22;5100;45.176;5.714;2023-04-24T01:09:40;16.80;73.10
10121;DHT22;5100;45.176;5.714;2023-04-24T01:12:09;16.80;73.30
10121;DHT22;5100;45.176;5.714;2023-04-24T01:14:37;16.80;73.40
10121;DHT22;5100;45.176;5.714;2023-04-24T01:17:04;16.80;73.60
10121;DHT22;5100;45.176;5.714;2023-04-24T01:19:30;16.80;73.80
10121;DHT22;5100;45.176;5.714;2023-04-24T01:21:58;16.80;73.80
10121;DHT22;5100;45.176;5.714;2023-04-24T01:24:28;16.80;73.80
10121;DHT22;5100;45.176;5.714;2023-04-24T01:26:55;16.80;73.90
10121;DHT22;5100;45.176;5.714;2023-04-24T01:29:21;16.80;74.00
10121;DHT22;5100;45.176;5.714;2023-04-24T01:31:47;16.80;74.10
10121;DHT22;5100;45.176;5.714;2023-04-24T01:34:14;16.80;74.10
10121;DHT22;5100;45.176;5.714;2023-04-24T01:36:41;16.80;73.80
10121;DHT22;5100;45.176;5.714;2023-04-24T01:39:08;16.80;73.80
10121;DHT22;5100;45.176;5.714;2023-04-24T01:41:34;16.80;73.70
10121;DHT22;5100;45.176;5.714;2023-04-24T01:44:01;16.80;73.70
10121;DHT22;5100;45.176;5.714;2023-04-24T01:46:28;16.80;73.80
10121;DHT22;5100;45.176;5.714;2023-04-24T01:48:54;16.80;73.90
10121;DHT22;5100;45.176;5.714;2023-04-24T01:51:20;16.80;74.20
10121;DHT22;5100;45.176;5.714;2023-04-24T01:53:46;16.80;74.20
10121;DHT22;5100;45.176;5.714;2023-04-24T01:56:13;16.80;74.30
10121;DHT22;5100;45.176;5.714;2023-04-24T01:58:40;16.80;74.30
10121;DHT22;5100;45.176;5.714;2023-04-24T02:01:06;16.70;74.40
10121;DHT22;5100;45.176;5.714;2023-04-24T02:03:33;16.70;74.50
10121;DHT22;5100;45.176;5.714;2023-04-24T02:05:59;16.70;74.30
10121;DHT22;5100;45.176;5.714;2023-04-24T02:08:25;16.70;74.10
10121;DHT22;5100;45.176;5.714;2023-04-24T02:10:51;16.70;74.10
10121;DHT22;5100;45.176;5.714;2023-04-24T02:13:18;16.70;74.20
10121;DHT22;5100;45.176;5.714;2023-04-24T02:15:44;16.70;74.00
10121;DHT22;5100;45.176;5.714;2023-04-24T02:18:10;16.70;73.90
10121;DHT22;5100;45.176;5.714;2023-04-24T02:20:37;16.70;73.90
10121;DHT22;5100;45.176;5.714;2023-04-24T02:23:03;16.70;73.60
10121;DHT22;5100;45.176;5.714;2023-04-24T02:25:29;16.70;73.30
10121;DHT22;5100;45.176;5.714;2023-04-24T02:27:55;16.70;73.30
10121;DHT22;5100;45.176;5.714;2023-04-24T02:30:21;16.60;73.10
10121;DHT22;5100;45.176;5.714;2023-04-24T02:32:47;16.60;72.80
10121;DHT22;5100;45.176;5.714;2023-04-24T02:35:14;16.60;72.60
10121;DHT22;5100;45.176;5.714;2023-04-24T02:37:40;16.60;72.70
10121;DHT22;5100;45.176;5.714;2023-04-24T02:40:07;16.60;72.90
10121;DHT22;5100;45.176;5.714;2023-04-24T02:42:33;16.60;72.80
10121;DHT22;5100;45.176;5.714;2023-04-24T02:44:59;16.60;72.70
10121;DHT22;5100;45.176;5.714;2023-04-24T02:47:25;16.60;72.80
10121;DHT22;5100;45.176;5.714;2023-04-24T02:49:51;16.60;72.90
10121;DHT22;5100;45.176;5.714;2023-04-24T02:52:17;16.50;72.70
10121;DHT22;5100;45.176;5.714;2023-04-24T02:54:44;16.50;72.60
10121;DHT22;5100;45.176;5.714;2023-04-24T02:57:10;16.50;72.40
10121;DHT22;5100;45.176;5.714;2023-04-24T02:59:37;16.50;72.50
10121;DHT22;5100;45.176;5.714;2023-04-24T03:02:03;16.50;72.50
10121;DHT22;5100;45.176;5.714;2023-04-24T03:04:29;16.50;72.60
10121;DHT22;5100;45.176;5.714;2023-04-24T03:06:55;16.50;72.80
10121;DHT22;5100;45.176;5.714;2023-04-24T03:09:21;16.50;72.90
10121;DHT22;5100;45.176;5.714;2023-04-24T03:11:48;16.50;73.00
10121;DHT22;5100;45.176;5.714;2023-04-24T03:14:15;16.50;72.90
10121;DHT22;5100;45.176;5.714;2023-04-24T03:16:41;16.50;73.00
10121;DHT22;5100;45.176;5.714;2023-04-24T03:19:07;16.40;73.40
10121;DHT22;5100;45.176;5.714;2023-04-24T03:21:34;16.40;73.60
10121;DHT22;5100;45.176;5.714;2023-04-24T03:24:01;16.40;73.70
10121;DHT22;5100;45.176;5.714;2023-04-24T03:26:28;16.40;73.80
10121;DHT22;5100;45.176;5.714;2023-04-24T03:28:56;16.40;73.90
10121;DHT22;5100;45.176;5.714;2023-04-24T03:31:22;16.40;73.70
10121;DHT22;5100;45.176;5.714;2023-04-24T03:33:49;16.40;73.70
10121;DHT22;5100;45.176;5.714;2023-04-24T03:36:17;16.40;73.60
10121;DHT22;5100;45.176;5.714;2023-04-24T03:38:45;16.40;73.50
10121;DHT22;5100;45.176;5.714;2023-04-24T03:41:13;16.40;73.50
10121;DHT22;5100;45.176;5.714;2023-04-24T03:43:39;16.40;73.40
10121;DHT22;5100;45.176;5.714;2023-04-24T03:46:06;16.40;73.40
10121;DHT22;5100;45.176;5.714;2023-04-24T03:48:35;16.40;73.50
10121;DHT22;5100;45.176;5.714;2023-04-24T03:51:02;16.40;73.60
10121;DHT22;5100;45.176;5.714;2023-04-24T03:53:28;16.40;73.50
10121;DHT22;5100;45.176;5.714;2023-04-24T03:55:55;16.40;73.30
10121;DHT22;5100;45.176;5.714;2023-04-24T03:58:22;16.40;73.00
10121;DHT22;5100;45.176;5.714;2023-04-24T04:00:48;16.30;72.80
10121;DHT22;5100;45.176;5.714;2023-04-24T04:03:17;16.30;72.80
10121;DHT22;5100;45.176;5.714;2023-04-24T04:05:43;16.30;72.70
10121;DHT22;5100;45.176;5.714;2023-04-24T04:08:09;16.30;72.70
10121;DHT22;5100;45.176;5.714;2023-04-24T04:10:35;16.30;72.90
10121;DHT22;5100;45.176;5.714;2023-04-24T04:13:04;16.30;72.90
10121;DHT22;5100;45.176;5.714;2023-04-24T04:15:30;16.30;72.70
10121;DHT22;5100;45.176;5.714;2023-04-24T04:17:56;16.30;72.80
10121;DHT22;5100;45.176;5.714;2023-04-24T04:20:23;16.30;72.80
10121;DHT22;5100;45.176;5.714;2023-04-24T04:22:49;16.30;73.20
10121;DHT22;5100;45.176;5.714;2023-04-24T04:25:16;16.30;73.40
10121;DHT22;5100;45.176;5.714;2023-04-24T04:27:44;16.30;73.50
10121;DHT22;5100;45.176;5.714;2023-04-24T04:30:10;16.30;73.50
10121;DHT22;5100;45.176;5.714;2023-04-24T04:32:39;16.30;73.50
10121;DHT22;5100;45.176;5.714;2023-04-24T04:35:05;16.30;73.40
10121;DHT22;5100;45.176;5.714;2023-04-24T04:37:32;16.30;73.40
10121;DHT22;5100;45.176;5.714;2023-04-24T04:40:01;16.30;73.40
10121;DHT22;5100;45.176;5.714;2023-04-24T04:42:32;16.20;73.40
10121;DHT22;5100;45.176;5.714;2023-04-24T04:45:00;16.20;73.60
10121;DHT22;5100;45.176;5.714;2023-04-24T04:47:27;16.30;73.60
10121;DHT22;5100;45.176;5.714;2023-04-24T04:49:54;16.20;73.60
10121;DHT22;5100;45.176;5.714;2023-04-24T04:52:21;16.20;73.70
10121;DHT22;5100;45.176;5.714;2023-04-24T04:54:52;16.30;73.90
10121;DHT22;5100;45.176;5.714;2023-04-24T04:57:18;16.20;74.00
10121;DHT22;5100;45.176;5.714;2023-04-24T04:59:44;16.30;74.20
10121;DHT22;5100;45.176;5.714;2023-04-24T05:02:11;16.20;74.40
10121;DHT22;5100;45.176;5.714;2023-04-24T05:04:37;16.20;74.30
10121;DHT22;5100;45.176;5.714;2023-04-24T05:07:04;16.20;74.20
10121;DHT22;5100;45.176;5.714;2023-04-24T05:09:30;16.20;74.20
10121;DHT22;5100;45.176;5.714;2023-04-24T05:11:57;16.30;74.10
10121;DHT22;5100;45.176;5.714;2023-04-24T05:14:24;16.20;73.90
10121;DHT22;5100;45.176;5.714;2023-04-24T05:16:50;16.20;73.90
10121;DHT22;5100;45.176;5.714;2023-04-24T05:19:18;16.20;73.80
10121;DHT22;5100;45.176;5.714;2023-04-24T05:21:45;16.20;73.70
10121;DHT22;5100;45.176;5.714;2023-04-24T05:24:11;16.20;73.70
10121;DHT22;5100;45.176;5.714;2023-04-24T05:26:37;16.20;73.80
10121;DHT22;5100;45.176;5.714;2023-04-24T05:29:04;16.20;74.00
10121;DHT22;5100;45.176;5.714;2023-04-24T05:31:31;16.20;74.00
10121;DHT22;5100;45.176;5.714;2023-04-24T05:33:56;16.20;74.10
10121;DHT22;5100;45.176;5.714;2023-04-24T05:36:23;16.20;74.10
10121;DHT22;5100;45.176;5.714;2023-04-24T05:38:49;16.20;74.10
10121;DHT22;5100;45.176;5.714;2023-04-24T05:41:16;16.20;74.00
10121;DHT22;5100;45.176;5.714;2023-04-24T05:43:42;16.20;73.80
10121;DHT22;5100;45.176;5.714;2023-04-24T05:46:08;16.20;73.60
10121;DHT22;5100;45.176;5.714;2023-04-24T05:48:34;16.20;73.80
10121;DHT22;5100;45.176;5.714;2023-04-24T05:51:01;16.20;73.80
10121;DHT22;5100;45.176;5.714;2023-04-24T05:53:27;16.20;73.60
10121;DHT22;5100;45.176;5.714;2023-04-24T05:55:53;16.20;73.70
10121;DHT22;5100;45.176;5.714;2023-04-24T05:58:19;16.20;73.90
10121;DHT22;5100;45.176;5.714;2023-04-24T06:00:46;16.20;73.90
10121;DHT22;5100;45.176;5.714;2023-04-24T06:03:12;16.20;73.80
10121;DHT22;5100;45.176;5.714;2023-04-24T06:05:38;16.20;73.80
10121;DHT22;5100;45.176;5.714;2023-04-24T06:08:04;16.20;73.90
10121;DHT22;5100;45.176;5.714;2023-04-24T06:10:31;16.20;73.90
10121;DHT22;5100;45.176;5.714;2023-04-24T06:12:57;16.20;73.60
10121;DHT22;5100;45.176;5.714;2023-04-24T06:15:29;16.20;73.10
10121;DHT22;5100;45.176;5.714;2023-04-24T06:17:57;16.30;72.90
10121;DHT22;5100;45.176;5.714;2023-04-24T06:20:24;16.20;72.90
10121;DHT22;5100;45.176;5.714;2023-04-24T06:22:50;16.20;73.10
10121;DHT22;5100;45.176;5.714;2023-04-24T06:25:16;16.20;73.20
10121;DHT22;5100;45.176;5.714;2023-04-24T06:27:42;16.20;73.40
10121;DHT22;5100;45.176;5.714;2023-04-24T06:30:09;16.20;73.50
10121;DHT22;5100;45.176;5.714;2023-04-24T06:32:35;16.20;73.60
10121;DHT22;5100;45.176;5.714;2023-04-24T06:35:01;16.20;73.70
10121;DHT22;5100;45.176;5.714;2023-04-24T06:37:27;16.20;73.90
10121;DHT22;5100;45.176;5.714;2023-04-24T06:39:54;16.30;74.00
10121;DHT22;5100;45.176;5.714;2023-04-24T06:42:20;16.30;74.00
10121;DHT22;5100;45.176;5.714;2023-04-24T06:44:50;16.30;74.10
10121;DHT22;5100;45.176;5.714;2023-04-24T06:47:16;16.30;74.30
10121;DHT22;5100;45.176;5.714;2023-04-24T06:49:42;16.30;74.40
10121;DHT22;5100;45.176;5.714;2023-04-24T06:52:08;16.30;74.40
10121;DHT22;5100;45.176;5.714;2023-04-24T06:54:35;16.40;74.40
10121;DHT22;5100;45.176;5.714;2023-04-24T06:57:01;16.40;74.50
10121;DHT22;5100;45.176;5.714;2023-04-24T06:59:29;16.40;74.30
10121;DHT22;5100;45.176;5.714;2023-04-24T07:01:56;16.50;73.90
10121;DHT22;5100;45.176;5.714;2023-04-24T07:04:22;16.50;73.80
10121;DHT22;5100;45.176;5.714;2023-04-24T07:06:48;16.60;73.60
10121;DHT22;5100;45.176;5.714;2023-04-24T07:09:17;16.60;73.50
10121;DHT22;5100;45.176;5.714;2023-04-24T07:11:45;16.60;73.30
10121;DHT22;5100;45.176;5.714;2023-04-24T07:14:11;16.70;72.80
10121;DHT22;5100;45.176;5.714;2023-04-24T07:16:38;16.70;72.60
10121;DHT22;5100;45.176;5.714;2023-04-24T07:19:04;16.70;72.80
10121;DHT22;5100;45.176;5.714;2023-04-24T07:21:31;16.70;73.00
10121;DHT22;5100;45.176;5.714;2023-04-24T07:23:58;16.70;73.10
10121;DHT22;5100;45.176;5.714;2023-04-24T07:26:25;16.70;73.30
10121;DHT22;5100;45.176;5.714;2023-04-24T07:28:52;16.70;73.40
10121;DHT22;5100;45.176;5.714;2023-04-24T07:31:18;16.80;73.30
10121;DHT22;5100;45.176;5.714;2023-04-24T07:33:44;16.90;72.90
10121;DHT22;5100;45.176;5.714;2023-04-24T07:36:10;16.90;72.60
10121;DHT22;5100;45.176;5.714;2023-04-24T07:38:42;16.90;72.40
10121;DHT22;5100;45.176;5.714;2023-04-24T07:41:08;16.90;72.30
10121;DHT22;5100;45.176;5.714;2023-04-24T07:43:35;16.90;72.60
10121;DHT22;5100;45.176;5.714;2023-04-24T07:46:01;16.90;72.30
10121;DHT22;5100;45.176;5.714;2023-04-24T07:48:28;16.90;72.10
10121;DHT22;5100;45.176;5.714;2023-04-24T07:50:54;16.90;72.00
10121;DHT22;5100;45.176;5.714;2023-04-24T07:53:20;16.90;72.20
10121;DHT22;5100;45.176;5.714;2023-04-24T07:55:46;16.90;72.20
10121;DHT22;5100;45.176;5.714;2023-04-24T07:58:12;16.90;72.20
10121;DHT22;5100;45.176;5.714;2023-04-24T08:00:38;16.90;71.40
10121;DHT22;5100;45.176;5.714;2023-04-24T08:03:05;16.80;71.00
10121;DHT22;5100;45.176;5.714;2023-04-24T08:05:31;16.80;70.90
10121;DHT22;5100;45.176;5.714;2023-04-24T08:07:58;16.90;70.60
10121;DHT22;5100;45.176;5.714;2023-04-24T08:10:25;16.90;70.20
10121;DHT22;5100;45.176;5.714;2023-04-24T08:12:51;16.90;69.70
10121;DHT22;5100;45.176;5.714;2023-04-24T08:15:17;16.90;69.40
10121;DHT22;5100;45.176;5.714;2023-04-24T08:17:44;16.90;69.60
10121;DHT22;5100;45.176;5.714;2023-04-24T08:20:11;16.90;69.60
10121;DHT22;5100;45.176;5.714;2023-04-24T08:22:43;16.90;69.70
10121;DHT22;5100;45.176;5.714;2023-04-24T08:25:10;16.90;69.50
10121;DHT22;5100;45.176;5.714;2023-04-24T08:27:36;17.00;69.20
10121;DHT22;5100;45.176;5.714;2023-04-24T08:30:04;17.00;69.20
10121;DHT22;5100;45.176;5.714;2023-04-24T08:32:31;17.00;69.20
10121;DHT22;5100;45.176;5.714;2023-04-24T08:34:59;17.00;68.80
10121;DHT22;5100;45.176;5.714;2023-04-24T08:37:26;17.00;68.70
10121;DHT22;5100;45.176;5.714;2023-04-24T08:39:53;17.00;69.10
10121;DHT22;5100;45.176;5.714;2023-04-24T08:42:20;17.10;68.90
10121;DHT22;5100;45.176;5.714;2023-04-24T08:44:48;17.10;68.80
10121;DHT22;5100;45.176;5.714;2023-04-24T08:47:15;17.10;68.60
10121;DHT22;5100;45.176;5.714;2023-04-24T08:49:41;17.20;68.50
10121;DHT22;5100;45.176;5.714;2023-04-24T08:52:08;17.20;67.90
10121;DHT22;5100;45.176;5.714;2023-04-24T08:54:35;17.20;67.70
10121;DHT22;5100;45.176;5.714;2023-04-24T08:57:02;17.30;68.00
10121;DHT22;5100;45.176;5.714;2023-04-24T08:59:30;17.30;67.60
10121;DHT22;5100;45.176;5.714;2023-04-24T09:01:57;17.40;67.00
10121;DHT22;5100;45.176;5.714;2023-04-24T09:04:24;17.40;66.90
10121;DHT22;5100;45.176;5.714;2023-04-24T09:06:59;17.40;68.10
10121;DHT22;5100;45.176;5.714;2023-04-24T09:09:30;17.50;68.80
10121;DHT22;5100;45.176;5.714;2023-04-24T09:11:57;17.60;69.50
10121;DHT22;5100;45.176;5.714;2023-04-24T09:14:24;17.70;69.00
10121;DHT22;5100;45.176;5.714;2023-04-24T09:16:51;17.80;68.20
10121;DHT22;5100;45.176;5.714;2023-04-24T09:19:17;17.80;67.40
10121;DHT22;5100;45.176;5.714;2023-04-24T09:21:45;17.80;67.20
10121;DHT22;5100;45.176;5.714;2023-04-24T09:24:18;17.80;66.10
10121;DHT22;5100;45.176;5.714;2023-04-24T09:26:46;17.80;65.70
10121;DHT22;5100;45.176;5.714;2023-04-24T09:29:16;17.90;65.20
10121;DHT22;5100;45.176;5.714;2023-04-24T09:31:44;17.90;64.60
10121;DHT22;5100;45.176;5.714;2023-04-24T09:34:11;17.90;64.30
10121;DHT22;5100;45.176;5.714;2023-04-24T09:36:40;18.00;64.50
10121;DHT22;5100;45.176;5.714;2023-04-24T09:39:12;18.00;64.50
10121;DHT22;5100;45.176;5.714;2023-04-24T09:41:52;18.00;63.80
10121;DHT22;5100;45.176;5.714;2023-04-24T09:44:23;18.10;63.80
10121;DHT22;5100;45.176;5.714;2023-04-24T09:46:55;18.10;64.30
10121;DHT22;5100;45.176;5.714;2023-04-24T09:49:27;18.10;63.30
10121;DHT22;5100;45.176;5.714;2023-04-24T09:52:10;18.20;63.10
10121;DHT22;5100;45.176;5.714;2023-04-24T09:54:37;18.20;63.40
10121;DHT22;5100;45.176;5.714;2023-04-24T09:57:05;18.20;63.30
10121;DHT22;5100;45.176;5.714;2023-04-24T09:59:33;18.30;63.00
10121;DHT22;5100;45.176;5.714;2023-04-24T10:02:02;18.30;62.50
10121;DHT22;5100;45.176;5.714;2023-04-24T10:04:29;18.30;62.50
10121;DHT22;5100;45.176;5.714;2023-04-24T10:06:56;18.30;62.70
10121;DHT22;5100;45.176;5.714;2023-04-24T10:09:25;18.30;62.90
10121;DHT22;5100;45.176;5.714;2023-04-24T10:11:53;18.30;62.60
10121;DHT22;5100;45.176;5.714;2023-04-24T10:14:24;18.30;62.50
10121;DHT22;5100;45.176;5.714;2023-04-24T10:16:53;18.30;62.30
10121;DHT22;5100;45.176;5.714;2023-04-24T10:19:19;18.30;62.30
10121;DHT22;5100;45.176;5.714;2023-04-24T10:21:46;18.40;61.90
10121;DHT22;5100;45.176;5.714;2023-04-24T10:24:14;18.40;61.50
10121;DHT22;5100;45.176;5.714;2023-04-24T10:26:41;18.40;61.10
10121;DHT22;5100;45.176;5.714;2023-04-24T10:29:07;18.40;60.30
10121;DHT22;5100;45.176;5.714;2023-04-24T10:31:36;18.40;60.50
10121;DHT22;5100;45.176;5.714;2023-04-24T10:34:07;18.40;60.30
10121;DHT22;5100;45.176;5.714;2023-04-24T10:36:34;18.40;60.50
10121;DHT22;5100;45.176;5.714;2023-04-24T10:39:03;18.40;60.50
10121;DHT22;5100;45.176;5.714;2023-04-24T10:41:32;18.50;60.60
10121;DHT22;5100;45.176;5.714;2023-04-24T10:46:34;18.50;59.60
10121;DHT22;5100;45.176;5.714;2023-04-24T10:49:04;18.50;59.70
10121;DHT22;5100;45.176;5.714;2023-04-24T10:51:49;18.50;60.30
10121;DHT22;5100;45.176;5.714;2023-04-24T10:54:33;18.60;60.50
10121;DHT22;5100;45.176;5.714;2023-04-24T10:57:26;18.60;61.00
10121;DHT22;5100;45.176;5.714;2023-04-24T11:02:40;18.60;60.20
10121;DHT22;5100;45.176;5.714;2023-04-24T11:05:09;18.60;60.00
10121;DHT22;5100;45.176;5.714;2023-04-24T11:08:14;18.70;60.00
10121;DHT22;5100;45.176;5.714;2023-04-24T11:21:46;18.80;58.00
10121;DHT22;5100;45.176;5.714;2023-04-24T11:24:39;18.90;58.10
10121;DHT22;5100;45.176;5.714;2023-04-24T11:29:41;19.00;57.80
10121;DHT22;5100;45.176;5.714;2023-04-24T11:32:19;19.10;57.60
10121;DHT22;5100;45.176;5.714;2023-04-24T11:34:51;19.20;57.40
10121;DHT22;5100;45.176;5.714;2023-04-24T11:37:17;19.40;57.40
10121;DHT22;5100;45.176;5.714;2023-04-24T11:39:43;19.50;57.60
10121;DHT22;5100;45.176;5.714;2023-04-24T11:42:09;19.60;57.30
10121;DHT22;5100;45.176;5.714;2023-04-24T11:44:36;19.60;57.50
10121;DHT22;5100;45.176;5.714;2023-04-24T11:47:05;19.70;57.30
10121;DHT22;5100;45.176;5.714;2023-04-24T11:49:32;19.80;57.30
10121;DHT22;5100;45.176;5.714;2023-04-24T11:52:01;19.80;57.30
10121;DHT22;5100;45.176;5.714;2023-04-24T11:54:27;19.80;57.30
10121;DHT22;5100;45.176;5.714;2023-04-24T11:56:55;19.90;57.70
10121;DHT22;5100;45.176;5.714;2023-04-24T11:59:22;19.80;57.30
10121;DHT22;5100;45.176;5.714;2023-04-24T12:01:48;19.80;57.50
10121;DHT22;5100;45.176;5.714;2023-04-24T12:04:17;19.80;57.50
10121;DHT22;5100;45.176;5.714;2023-04-24T12:07:02;19.70;57.60
10121;DHT22;5100;45.176;5.714;2023-04-24T12:10:00;19.70;57.50
10121;DHT22;5100;45.176;5.714;2023-04-24T12:12:27;19.60;58.40
10121;DHT22;5100;45.176;5.714;2023-04-24T12:14:57;19.60;58.40
10121;DHT22;5100;45.176;5.714;2023-04-24T12:17:25;19.60;58.30
10121;DHT22;5100;45.176;5.714;2023-04-24T12:19:52;19.50;57.70
10121;DHT22;5100;45.176;5.714;2023-04-24T12:22:19;19.50;57.40
10121;DHT22;5100;45.176;5.714;2023-04-24T12:24:58;19.50;57.40
10121;DHT22;5100;45.176;5.714;2023-04-24T12:27:25;19.50;56.80
10121;DHT22;5100;45.176;5.714;2023-04-24T12:29:52;19.50;56.60
10121;DHT22;5100;45.176;5.714;2023-04-24T12:32:19;19.50;56.60
10121;DHT22;5100;45.176;5.714;2023-04-24T12:34:45;19.50;56.00
10121;DHT22;5100;45.176;5.714;2023-04-24T12:37:11;19.50;56.00
10121;DHT22;5100;45.176;5.714;2023-04-24T12:39:38;19.50;57.10
10121;DHT22;5100;45.176;5.714;2023-04-24T12:42:05;19.60;57.10
10121;DHT22;5100;45.176;5.714;2023-04-24T12:44:32;19.70;55.70
10121;DHT22;5100;45.176;5.714;2023-04-24T12:47:03;19.80;55.30
10121;DHT22;5100;45.176;5.714;2023-04-24T12:49:30;19.80;55.20
10121;DHT22;5100;45.176;5.714;2023-04-24T12:51:56;19.90;55.30
10121;DHT22;5100;45.176;5.714;2023-04-24T12:54:22;19.80;54.80
10121;DHT22;5100;45.176;5.714;2023-04-24T12:56:49;19.80;54.90
10121;DHT22;5100;45.176;5.714;2023-04-24T12:59:15;19.80;55.80
10121;DHT22;5100;45.176;5.714;2023-04-24T13:01:41;19.80;54.50
10121;DHT22;5100;45.176;5.714;2023-04-24T13:04:07;19.70;52.10
10121;DHT22;5100;45.176;5.714;2023-04-24T13:06:33;19.70;52.10
10121;DHT22;5100;45.176;5.714;2023-04-24T13:08:59;19.70;53.60
10121;DHT22;5100;45.176;5.714;2023-04-24T13:11:26;19.70;53.00
10121;DHT22;5100;45.176;5.714;2023-04-24T13:13:52;19.70;52.40
10121;DHT22;5100;45.176;5.714;2023-04-24T13:16:18;19.70;51.90
10121;DHT22;5100;45.176;5.714;2023-04-24T13:18:44;19.70;49.80
10121;DHT22;5100;45.176;5.714;2023-04-24T13:21:10;19.70;49.20
10121;DHT22;5100;45.176;5.714;2023-04-24T13:23:36;19.70;48.90
10121;DHT22;5100;45.176;5.714;2023-04-24T13:26:03;19.70;49.40
10121;DHT22;5100;45.176;5.714;2023-04-24T13:28:29;19.60;48.70
10121;DHT22;5100;45.176;5.714;2023-04-24T13:30:55;19.70;48.80
10121;DHT22;5100;45.176;5.714;2023-04-24T13:33:22;19.70;49.30
10121;DHT22;5100;45.176;5.714;2023-04-24T13:35:48;19.70;48.20
10121;DHT22;5100;45.176;5.714;2023-04-24T13:38:14;19.70;48.30
10121;DHT22;5100;45.176;5.714;2023-04-24T13:40:40;19.60;49.00
10121;DHT22;5100;45.176;5.714;2023-04-24T13:43:06;19.70;50.20
10121;DHT22;5100;45.176;5.714;2023-04-24T13:45:32;19.70;49.50
10121;DHT22;5100;45.176;5.714;2023-04-24T13:47:59;19.70;49.00
10121;DHT22;5100;45.176;5.714;2023-04-24T13:50:25;19.80;48.90
10121;DHT22;5100;45.176;5.714;2023-04-24T13:52:51;19.80;48.80
10121;DHT22;5100;45.176;5.714;2023-04-24T13:55:17;19.80;48.90
10121;DHT22;5100;45.176;5.714;2023-04-24T13:57:43;19.80;48.70
10121;DHT22;5100;45.176;5.714;2023-04-24T14:00:10;19.80;48.50
10121;DHT22;5100;45.176;5.714;2023-04-24T14:02:37;19.80;48.40
10121;DHT22;5100;45.176;5.714;2023-04-24T14:05:03;19.90;48.10
10121;DHT22;5100;45.176;5.714;2023-04-24T14:07:29;19.90;47.90
10121;DHT22;5100;45.176;5.714;2023-04-24T14:09:56;19.90;47.80
10121;DHT22;5100;45.176;5.714;2023-04-24T14:12:22;19.90;48.00
10121;DHT22;5100;45.176;5.714;2023-04-24T14:14:48;19.90;48.30
10121;DHT22;5100;45.176;5.714;2023-04-24T14:17:15;19.90;48.10
10121;DHT22;5100;45.176;5.714;2023-04-24T14:19:41;19.90;47.80
10121;DHT22;5100;45.176;5.714;2023-04-24T14:22:07;19.90;47.90
10121;DHT22;5100;45.176;5.714;2023-04-24T14:24:33;19.90;48.10
10121;DHT22;5100;45.176;5.714;2023-04-24T14:26:59;19.90;48.20
10121;DHT22;5100;45.176;5.714;2023-04-24T14:29:25;20.00;48.20
10121;DHT22;5100;45.176;5.714;2023-04-24T14:31:52;20.00;48.10
10121;DHT22;5100;45.176;5.714;2023-04-24T14:34:18;20.00;48.00
10121;DHT22;5100;45.176;5.714;2023-04-24T14:36:45;20.00;48.10
10121;DHT22;5100;45.176;5.714;2023-04-24T14:39:11;20.00;48.10
10121;DHT22;5100;45.176;5.714;2023-04-24T14:41:38;20.00;48.20
10121;DHT22;5100;45.176;5.714;2023-04-24T14:44:05;20.00;48.40
10121;DHT22;5100;45.176;5.714;2023-04-24T14:46:31;20.10;48.40
10121;DHT22;5100;45.176;5.714;2023-04-24T14:48:57;20.10;48.10
10121;DHT22;5100;45.176;5.714;2023-04-24T14:51:24;20.10;48.20
10121;DHT22;5100;45.176;5.714;2023-04-24T14:53:51;20.10;48.20
10121;DHT22;5100;45.176;5.714;2023-04-24T14:56:17;20.10;48.30
10121;DHT22;5100;45.176;5.714;2023-04-24T14:58:43;20.10;48.40
10121;DHT22;5100;45.176;5.714;2023-04-24T15:01:10;20.10;48.30
10121;DHT22;5100;45.176;5.714;2023-04-24T15:03:36;20.10;48.10
10121;DHT22;5100;45.176;5.714;2023-04-24T15:06:02;20.10;48.30
10121;DHT22;5100;45.176;5.714;2023-04-24T15:08:29;20.10;48.30
10121;DHT22;5100;45.176;5.714;2023-04-24T15:10:55;20.10;48.10
10121;DHT22;5100;45.176;5.714;2023-04-24T15:13:21;20.10;47.90
10121;DHT22;5100;45.176;5.714;2023-04-24T15:15:47;20.00;48.00
10121;DHT22;5100;45.176;5.714;2023-04-24T15:18:13;20.00;47.70
10121;DHT22;5100;45.176;5.714;2023-04-24T15:20:39;20.00;47.50
10121;DHT22;5100;45.176;5.714;2023-04-24T15:23:08;20.00;47.50
10121;DHT22;5100;45.176;5.714;2023-04-24T15:25:34;20.00;47.50
10121;DHT22;5100;45.176;5.714;2023-04-24T15:28:00;20.00;47.00
10121;DHT22;5100;45.176;5.714;2023-04-24T15:30:27;20.00;47.10
10121;DHT22;5100;45.176;5.714;2023-04-24T15:32:53;20.00;47.00
10121;DHT22;5100;45.176;5.714;2023-04-24T15:35:19;20.00;46.90
10121;DHT22;5100;45.176;5.714;2023-04-24T15:37:45;20.00;46.60
10121;DHT22;5100;45.176;5.714;2023-04-24T15:40:12;20.00;46.70
10121;DHT22;5100;45.176;5.714;2023-04-24T15:42:44;20.00;46.30
10121;DHT22;5100;45.176;5.714;2023-04-24T15:45:11;20.10;46.10
10121;DHT22;5100;45.176;5.714;2023-04-24T15:47:38;20.10;46.00
10121;DHT22;5100;45.176;5.714;2023-04-24T15:50:04;20.10;46.00
10121;DHT22;5100;45.176;5.714;2023-04-24T15:52:31;20.10;46.30
10121;DHT22;5100;45.176;5.714;2023-04-24T15:54:57;20.10;46.50
10121;DHT22;5100;45.176;5.714;2023-04-24T15:57:23;20.10;46.50
10121;DHT22;5100;45.176;5.714;2023-04-24T15:59:49;20.10;46.70
10121;DHT22;5100;45.176;5.714;2023-04-24T16:02:15;20.20;46.70
10121;DHT22;5100;45.176;5.714;2023-04-24T16:04:46;20.20;46.50